createdAt,value
2023-01-13T00:01:00.021Z,99737.75
2023-01-13T00:03:26.647Z,99688.31
2023-01-13T00:05:53.323Z,99735.97
2023-01-13T00:08:19.988Z,99712.44
2023-01-13T00:10:48.527Z,99683.25
2023-01-13T00:13:15.361Z,99667.63
2023-01-13T00:15:42.423Z,99722.50
2023-01-13T00:18:09.337Z,99710.97
2023-01-13T00:20:36.118Z,99665.63
2023-01-13T00:23:04.527Z,99680.84
2023-01-13T00:25:31.237Z,99694.66
2023-01-13T00:27:58.017Z,99700.84
2023-01-13T00:30:24.647Z,99601.38
2023-01-13T00:32:51.269Z,99676.03
2023-01-13T00:35:18.099Z,99662.19
2023-01-13T00:37:44.811Z,99657.06
2023-01-13T00:40:12.085Z,99598.72
2023-01-13T00:42:57.263Z,99590.59
2023-01-13T00:45:24.035Z,99654.59
2023-01-13T00:47:50.655Z,99627.66
2023-01-13T00:50:17.445Z,99663.88
2023-01-13T00:52:44.239Z,99577.91
2023-01-13T00:55:10.963Z,99586.59
2023-01-13T00:57:37.678Z,99586.66
2023-01-13T01:00:04.889Z,99614.97
2023-01-13T01:02:31.615Z,99586.28
2023-01-13T01:05:00.185Z,99607.91
2023-01-13T01:07:26.862Z,99611.00
2023-01-13T01:09:53.494Z,99558.81
2023-01-13T01:12:20.194Z,99616.22
2023-01-13T01:14:46.927Z,99535.25
2023-01-13T01:17:13.596Z,99638.41
2023-01-13T01:19:40.358Z,99551.53
2023-01-13T01:22:07.039Z,99537.97
2023-01-13T01:24:33.758Z,99529.34
2023-01-13T01:27:00.487Z,99616.44
2023-01-13T01:29:27.270Z,99599.72
2023-01-13T01:31:54.006Z,99510.59
2023-01-13T01:34:20.640Z,99625.91
2023-01-13T01:36:47.328Z,99615.50
2023-01-13T01:39:14.131Z,99673.88
2023-01-13T01:42:00.818Z,99588.28
2023-01-13T01:44:42.490Z,99675.91
2023-01-13T01:47:17.855Z,99589.16
2023-01-13T01:49:48.816Z,99591.56
2023-01-13T01:52:23.461Z,99653.25
2023-01-13T01:55:05.049Z,99608.13
2023-01-13T01:57:34.602Z,99662.47
2023-01-13T02:00:02.249Z,99384.69
2023-01-13T02:02:30.628Z,99462.88
2023-01-13T02:04:58.120Z,99544.25
2023-01-13T02:07:28.049Z,99605.91
2023-01-13T02:09:56.860Z,99475.66
2023-01-13T02:12:34.722Z,99644.13
2023-01-13T02:15:07.670Z,99567.88
2023-01-13T02:17:52.964Z,99646.69
2023-01-13T02:20:34.856Z,99642.19
2023-01-13T02:24:03.039Z,99633.91
2023-01-13T02:26:45.243Z,99640.47
2023-01-13T02:29:49.318Z,99639.88
2023-01-13T02:32:34.044Z,99593.28
2023-01-13T02:35:10.651Z,99621.38
2023-01-13T02:37:40.620Z,99622.47
2023-01-13T02:40:07.451Z,99637.81
2023-01-13T02:42:55.197Z,99606.78
2023-01-13T02:45:29.614Z,99628.13
2023-01-13T02:48:00.137Z,99565.59
2023-01-13T02:50:36.047Z,99620.97
2023-01-13T02:53:08.684Z,99506.97
2023-01-13T02:55:40.292Z,99558.69
2023-01-13T02:58:10.562Z,99604.06
2023-01-13T03:00:38.020Z,99576.53
2023-01-13T03:03:04.628Z,99550.19
2023-01-13T03:05:33.173Z,99596.56
2023-01-13T03:08:11.808Z,99621.66
2023-01-13T03:10:54.347Z,99522.16
2023-01-13T03:13:36.027Z,99609.03
2023-01-13T03:16:22.294Z,99549.94
2023-01-13T03:19:07.528Z,99606.97
2023-01-13T03:21:52.355Z,99608.00
2023-01-13T03:24:32.512Z,99604.41
2023-01-13T03:27:03.655Z,99613.81
2023-01-13T03:29:41.293Z,99549.28
2023-01-13T03:32:16.336Z,99590.94
2023-01-13T03:34:49.805Z,99516.69
2023-01-13T03:37:23.785Z,99461.06
2023-01-13T03:39:57.768Z,99567.56
2023-01-13T03:42:28.466Z,99597.41
2023-01-13T03:45:04.434Z,99594.53
2023-01-13T03:47:46.479Z,99536.31
2023-01-13T03:50:19.806Z,99558.38
2023-01-13T03:53:10.123Z,99576.09
2023-01-13T03:55:42.306Z,99536.47
2023-01-13T03:58:15.043Z,99524.97
2023-01-13T04:00:52.958Z,99552.25
2023-01-13T04:03:47.004Z,99571.34
2023-01-13T04:06:17.049Z,99578.13
2023-01-13T04:08:51.572Z,99544.22
2023-01-13T04:11:26.807Z,99491.81
2023-01-13T04:13:54.548Z,99452.72
2023-01-13T04:16:21.297Z,99537.41
2023-01-13T04:18:50.277Z,99508.63
2023-01-13T04:21:16.801Z,99479.66
2023-01-13T04:23:43.360Z,99419.50
2023-01-13T04:26:10.070Z,99428.19
2023-01-13T04:28:36.680Z,99543.88
2023-01-13T04:31:03.294Z,99441.13
2023-01-13T04:33:30.039Z,99431.91
2023-01-13T04:35:56.669Z,99526.44
2023-01-13T04:38:23.451Z,99434.91
2023-01-13T04:40:50.125Z,99349.84
2023-01-13T04:43:17.266Z,99457.13
2023-01-13T04:45:44.475Z,99491.97
2023-01-13T04:48:11.349Z,99439.09
2023-01-13T04:50:38.049Z,99474.56
2023-01-13T04:53:05.044Z,99422.56
2023-01-13T04:55:32.080Z,99399.22
2023-01-13T04:58:07.173Z,99522.88
2023-01-13T05:00:34.258Z,99393.06
2023-01-13T05:03:02.956Z,99496.19
2023-01-13T05:05:30.624Z,99528.16
2023-01-13T05:07:57.988Z,99458.44
2023-01-13T05:10:24.740Z,99523.69
2023-01-13T05:13:09.960Z,99473.16
2023-01-13T05:15:55.297Z,99544.56
2023-01-13T05:18:21.913Z,99558.38
2023-01-13T05:20:49.567Z,99554.47
2023-01-13T05:23:34.745Z,99581.06
2023-01-13T05:26:01.311Z,99608.66
2023-01-13T05:28:32.217Z,99610.44
2023-01-13T05:30:58.795Z,99517.97
2023-01-13T05:33:25.394Z,99611.19
2023-01-13T05:35:52.180Z,99627.19
2023-01-13T05:38:18.814Z,99598.88
2023-01-13T05:41:11.551Z,99637.41
2023-01-13T05:43:38.080Z,99545.34
2023-01-13T05:46:08.088Z,99646.16
2023-01-13T05:48:37.573Z,99617.78
2023-01-13T05:51:15.997Z,99680.03
2023-01-13T05:53:42.737Z,99634.34
2023-01-13T05:56:10.337Z,99705.69
2023-01-13T05:58:37.239Z,99507.78
2023-01-13T06:01:06.374Z,99644.63
2023-01-13T06:03:33.270Z,99640.56
2023-01-13T06:06:02.133Z,99633.03
2023-01-13T06:08:29.653Z,99683.44
2023-01-13T06:10:56.465Z,99494.66
2023-01-13T06:13:23.238Z,99366.88
2023-01-13T06:15:49.846Z,99650.13
2023-01-13T06:18:16.522Z,99535.34
2023-01-13T06:20:43.074Z,99539.06
2023-01-13T06:23:11.753Z,99664.63
2023-01-13T06:25:58.709Z,99682.03
2023-01-13T06:28:25.370Z,99609.09
2023-01-13T06:30:57.639Z,99608.25
2023-01-13T06:33:30.030Z,99703.47
2023-01-13T06:36:02.354Z,99636.31
2023-01-13T06:38:33.815Z,99701.53
2023-01-13T06:41:00.415Z,99564.09
2023-01-13T06:43:27.069Z,99589.47
2023-01-13T06:45:55.834Z,99658.94
2023-01-13T06:48:25.573Z,99531.09
2023-01-13T06:50:52.131Z,99518.31
2023-01-13T06:53:20.136Z,99547.03
2023-01-13T06:55:46.760Z,99613.47
2023-01-13T06:58:13.471Z,99629.81
2023-01-13T07:00:40.098Z,99570.97
2023-01-13T07:03:16.420Z,99654.97
2023-01-13T07:05:50.707Z,99637.66
2023-01-13T07:08:17.419Z,99403.06
2023-01-13T07:10:43.999Z,99656.38
2023-01-13T07:13:29.422Z,99477.53
2023-01-13T07:15:58.145Z,99588.91
2023-01-13T07:18:31.982Z,99499.09
2023-01-13T07:21:12.461Z,99610.19
2023-01-13T07:23:40.734Z,99702.16
2023-01-13T07:26:09.377Z,99544.03
2023-01-13T07:28:39.719Z,99478.72
2023-01-13T07:31:14.124Z,99708.94
2023-01-13T07:33:43.364Z,99614.66
2023-01-13T07:36:11.163Z,99638.41
2023-01-13T07:38:39.810Z,99575.69
2023-01-13T07:41:25.495Z,99699.53
2023-01-13T07:43:52.477Z,99689.00
2023-01-13T07:46:19.330Z,99710.56
2023-01-13T07:48:47.984Z,99641.25
2023-01-13T07:51:14.989Z,99726.75
2023-01-13T07:53:41.531Z,99642.41
2023-01-13T07:56:08.518Z,99558.88
2023-01-13T07:58:36.422Z,99743.41
2023-01-13T08:01:15.396Z,99596.22
2023-01-13T08:03:42.461Z,99670.88
2023-01-13T08:06:10.520Z,99722.16
2023-01-13T08:08:37.817Z,99694.63
2023-01-13T08:11:06.897Z,99705.97
2023-01-13T08:13:33.822Z,99612.78
2023-01-13T08:16:02.826Z,99681.22
2023-01-13T08:18:33.871Z,99729.44
2023-01-13T08:21:08.353Z,99702.81
2023-01-13T08:23:35.548Z,99656.91
2023-01-13T08:26:04.655Z,99750.69
2023-01-13T08:28:31.437Z,99739.44
2023-01-13T08:31:02.588Z,99739.50
2023-01-13T08:33:29.772Z,99744.56
2023-01-13T08:35:56.745Z,99768.56
2023-01-13T08:38:24.370Z,99711.19
2023-01-13T08:40:51.105Z,99790.16
2023-01-13T08:43:17.759Z,99780.41
2023-01-13T08:45:44.838Z,99789.22
2023-01-13T08:48:11.578Z,99693.53
2023-01-13T08:50:38.389Z,99754.81
2023-01-13T08:53:04.984Z,99654.22
2023-01-13T08:55:31.609Z,99699.38
2023-01-13T08:58:14.067Z,99642.53
2023-01-13T09:00:42.239Z,99753.81
2023-01-13T09:03:08.912Z,99791.47
2023-01-13T09:05:36.997Z,99792.19
2023-01-13T09:08:03.600Z,99743.13
2023-01-13T09:10:30.331Z,99779.06
2023-01-13T09:13:16.613Z,99662.19
2023-01-13T09:15:47.458Z,99565.13
2023-01-13T09:18:14.620Z,99686.59
2023-01-13T09:20:41.728Z,99642.66
2023-01-13T09:23:10.715Z,99645.72
2023-01-13T09:25:38.297Z,99841.66
2023-01-13T09:28:07.019Z,99551.44
2023-01-13T09:30:34.061Z,99612.06
2023-01-13T09:33:19.420Z,99594.56
2023-01-13T09:35:46.183Z,99608.13
2023-01-13T09:38:13.411Z,99777.34
2023-01-13T09:40:44.795Z,99574.69
2023-01-13T09:43:47.328Z,99729.31
2023-01-13T09:46:47.645Z,99612.09
2023-01-13T09:49:28.435Z,99739.06
2023-01-13T09:52:03.300Z,99839.19
2023-01-13T09:54:52.031Z,99853.66
2023-01-13T09:57:21.327Z,99794.88
2023-01-13T09:59:49.407Z,99684.56
2023-01-13T10:02:37.275Z,99580.19
2023-01-13T10:05:04.316Z,99871.06
2023-01-13T10:07:37.384Z,99776.06
2023-01-13T10:10:19.883Z,99855.28
2023-01-13T10:13:12.944Z,99557.81
2023-01-13T10:15:47.310Z,99853.31
2023-01-13T10:18:32.861Z,99849.81
2023-01-13T10:21:31.145Z,99864.25
2023-01-13T10:24:07.462Z,99740.34
2023-01-13T10:26:59.605Z,99620.72
2023-01-13T10:29:28.824Z,99524.47
2023-01-13T10:31:57.973Z,99575.53
2023-01-13T10:34:29.370Z,99540.56
2023-01-13T10:37:00.621Z,99625.25
2023-01-13T10:39:27.636Z,99546.38
2023-01-13T10:42:05.652Z,99723.69
2023-01-13T10:44:32.693Z,99501.97
2023-01-13T10:46:59.823Z,99850.53
2023-01-13T10:49:28.353Z,99653.63
2023-01-13T10:51:55.090Z,99691.03
2023-01-13T10:54:24.430Z,99842.41
2023-01-13T10:57:16.528Z,99841.25
2023-01-13T10:59:44.039Z,99805.59
2023-01-13T11:02:25.910Z,99836.91
2023-01-13T11:04:53.553Z,99839.84
2023-01-13T11:07:32.344Z,99828.25
2023-01-13T11:10:24.414Z,99833.31
2023-01-13T11:13:13.784Z,99778.84
2023-01-13T11:16:05.515Z,99808.09
2023-01-13T11:18:38.031Z,99846.47
2023-01-13T11:21:36.900Z,99849.41
2023-01-13T11:24:20.701Z,99808.13
2023-01-13T11:27:13.148Z,99840.97
2023-01-13T11:30:09.874Z,99843.81
2023-01-13T11:32:46.111Z,99847.88
2023-01-13T11:35:21.887Z,99839.31
2023-01-13T11:38:03.342Z,99794.53
2023-01-13T11:40:41.496Z,99869.16
2023-01-13T11:43:42.629Z,99572.66
2023-01-13T11:46:11.822Z,99723.75
2023-01-13T11:48:42.698Z,99737.88
2023-01-13T11:51:15.208Z,99870.84
2023-01-13T11:54:01.028Z,99765.50
2023-01-13T11:56:39.210Z,99885.25
2023-01-13T11:59:16.028Z,99872.03
2023-01-13T12:02:21.114Z,99877.41
2023-01-13T12:05:06.761Z,99866.19
2023-01-13T12:08:00.745Z,99869.44
2023-01-13T12:10:48.963Z,99719.59
2023-01-13T12:13:34.648Z,99868.03
2023-01-13T12:16:25.129Z,99863.78
2023-01-13T12:18:51.682Z,99860.19
2023-01-13T12:21:28.987Z,99849.28
2023-01-13T12:24:06.211Z,99864.97
2023-01-13T12:26:40.838Z,99821.81
2023-01-13T12:29:19.218Z,99869.88
2023-01-13T12:31:48.946Z,99865.47
2023-01-13T12:34:37.451Z,99865.88
2023-01-13T12:37:22.730Z,99733.97
2023-01-13T12:40:23.511Z,99849.66
2023-01-13T12:43:18.472Z,99849.09
2023-01-13T12:45:45.678Z,99769.69
2023-01-13T12:48:53.125Z,99844.25
2023-01-13T12:51:28.454Z,99848.06
2023-01-13T12:53:56.436Z,99856.28
2023-01-13T12:56:45.004Z,99853.81
2023-01-13T12:59:17.642Z,99848.09
2023-01-13T13:01:46.100Z,99672.56
2023-01-13T13:04:17.234Z,99851.84
2023-01-13T13:06:51.358Z,99859.25
2023-01-13T13:09:30.037Z,99816.50
2023-01-13T13:11:59.339Z,99744.00
2023-01-13T13:14:37.982Z,99846.75
2023-01-13T13:17:19.781Z,99856.47
2023-01-13T13:19:49.178Z,99808.84
2023-01-13T13:22:50.462Z,99737.84
2023-01-13T13:25:23.590Z,99838.75
2023-01-13T13:28:17.657Z,99778.41
2023-01-13T13:30:53.910Z,99721.03
2023-01-13T13:33:35.091Z,99765.31
2023-01-13T13:36:35.532Z,99918.41
2023-01-13T13:39:37.598Z,99930.91
2023-01-13T13:42:37.062Z,99621.13
2023-01-13T13:45:40.118Z,99932.28
2023-01-13T13:48:34.294Z,99956.16
2023-01-13T13:51:04.751Z,99680.25
2023-01-13T13:53:35.709Z,99829.06
2023-01-13T13:56:04.700Z,99738.53
2023-01-13T13:58:35.669Z,99615.97
2023-01-13T14:01:04.397Z,99941.53
2023-01-13T14:03:34.616Z,99813.88
2023-01-13T14:06:07.213Z,99950.16
2023-01-13T14:08:37.525Z,99760.09
2023-01-13T14:11:26.050Z,99966.06
2023-01-13T14:14:15.388Z,99819.94
2023-01-13T14:16:42.104Z,99884.81
2023-01-13T14:19:33.831Z,99951.25
2023-01-13T14:22:02.749Z,99806.09
2023-01-13T14:24:31.344Z,99725.78
2023-01-13T14:27:14.223Z,99913.84
2023-01-13T14:29:41.256Z,99767.91
2023-01-13T14:32:08.518Z,99872.50
2023-01-13T14:34:35.987Z,99861.41
2023-01-13T14:37:03.809Z,99707.56
2023-01-13T14:39:38.807Z,99978.31
2023-01-13T14:42:12.645Z,99974.75
2023-01-13T14:44:45.220Z,99994.13
2023-01-13T14:47:26.835Z,99929.41
2023-01-13T14:50:05.811Z,99924.31
2023-01-13T14:52:46.409Z,99990.81
2023-01-13T14:55:25.310Z,99996.75
2023-01-13T14:57:52.338Z,99963.97
2023-01-13T15:00:24.486Z,100003.56
2023-01-13T15:02:57.254Z,100006.41
2023-01-13T15:05:23.954Z,100013.69
2023-01-13T15:07:56.053Z,99978.06
2023-01-13T15:10:33.352Z,100022.06
2023-01-13T15:13:03.490Z,100038.75
2023-01-13T15:15:36.462Z,100016.16
2023-01-13T15:18:13.792Z,99882.06
2023-01-13T15:20:41.419Z,99754.34
2023-01-13T15:23:08.280Z,99856.06
2023-01-13T15:25:37.245Z,99990.00
2023-01-13T15:28:05.124Z,99959.28
2023-01-13T15:30:32.425Z,99740.88
2023-01-13T15:32:59.293Z,99791.63
2023-01-13T15:35:28.184Z,99992.34
2023-01-13T15:37:56.843Z,100076.41
2023-01-13T15:40:30.559Z,100078.22
2023-01-13T15:43:15.575Z,100097.50
2023-01-13T15:46:00.940Z,99906.94
2023-01-13T15:48:32.945Z,99949.66
2023-01-13T15:51:00.823Z,99979.56
2023-01-13T15:53:28.710Z,99899.16
2023-01-13T15:55:57.887Z,99929.41
2023-01-13T15:58:28.304Z,99925.50
2023-01-13T16:00:55.328Z,100092.63
2023-01-13T16:03:22.215Z,100017.34
2023-01-13T16:05:49.262Z,100062.25
2023-01-13T16:08:18.484Z,99993.13
2023-01-13T16:10:46.276Z,99802.88
2023-01-13T16:13:13.389Z,99842.34
2023-01-13T16:15:46.563Z,99940.81
2023-01-13T16:18:26.601Z,99779.56
2023-01-13T16:20:59.317Z,99834.09
2023-01-13T16:23:26.456Z,99923.44
2023-01-13T16:25:53.696Z,99788.00
2023-01-13T16:28:31.483Z,99922.09
2023-01-13T16:30:59.033Z,99830.66
2023-01-13T16:33:26.463Z,100140.47
2023-01-13T16:36:10.674Z,99928.38
2023-01-13T16:38:47.772Z,100174.50
2023-01-13T16:41:18.269Z,99846.66
2023-01-13T16:43:52.633Z,99866.78
2023-01-13T16:46:28.492Z,99810.28
2023-01-13T16:48:58.439Z,99837.69
2023-01-13T16:51:25.854Z,99845.72
2023-01-13T16:53:59.563Z,99835.66
2023-01-13T16:56:42.625Z,100155.81
2023-01-13T16:59:42.992Z,100174.19
2023-01-13T17:08:05.151Z,100193.16
2023-01-13T17:10:32.562Z,100090.50
2023-01-13T17:13:16.037Z,100142.13
2023-01-13T17:15:47.395Z,99914.69
2023-01-13T17:18:14.695Z,100129.97
2023-01-13T17:20:42.087Z,99996.13
2023-01-13T17:23:10.305Z,99915.56
2023-01-13T17:25:37.209Z,100052.09
2023-01-13T17:28:03.913Z,100166.81
2023-01-13T17:30:30.725Z,100235.69
2023-01-13T17:32:57.296Z,100137.00
2023-01-13T17:35:25.366Z,100005.06
2023-01-13T17:37:53.193Z,100248.25
2023-01-13T17:40:20.709Z,100238.31
2023-01-13T17:42:47.963Z,100238.03
2023-01-13T17:45:17.989Z,100167.03
2023-01-13T17:47:47.277Z,99941.06
2023-01-13T17:50:14.797Z,99947.09
2023-01-13T17:52:41.828Z,99968.31
2023-01-13T17:55:09.774Z,100172.06
2023-01-13T17:57:43.924Z,100069.41
2023-01-13T18:00:20.591Z,100165.47
2023-01-13T18:02:50.740Z,100163.75
2023-01-13T18:05:20.731Z,100087.53
2023-01-13T18:07:48.349Z,99985.13
2023-01-13T18:10:16.068Z,100037.88
2023-01-13T18:12:42.866Z,100021.19
2023-01-13T18:15:09.626Z,100249.28
2023-01-13T18:17:36.624Z,99986.81
2023-01-13T18:20:22.275Z,100025.81
2023-01-13T18:23:07.545Z,100060.13
2023-01-13T18:25:52.623Z,100190.59
2023-01-13T18:28:20.142Z,100142.63
2023-01-13T18:30:48.459Z,100145.50
2023-01-13T18:33:15.368Z,100043.28
2023-01-13T18:35:42.004Z,100166.22
2023-01-13T18:38:09.106Z,100116.44
2023-01-13T18:40:38.979Z,100313.84
2023-01-13T18:43:05.620Z,100036.94
2023-01-13T18:45:32.505Z,100333.47
2023-01-13T18:48:01.588Z,100228.78
2023-01-13T18:50:29.039Z,100029.56
2023-01-13T18:52:56.158Z,100245.59
2023-01-13T18:55:23.229Z,100231.69
2023-01-13T18:57:51.094Z,100168.66
2023-01-13T19:00:19.971Z,100051.72
2023-01-13T19:02:47.668Z,100237.94
2023-01-13T19:05:15.241Z,100296.47
2023-01-13T19:07:46.536Z,100149.84
2023-01-13T19:10:13.465Z,100350.69
2023-01-13T19:12:40.183Z,100344.47
2023-01-13T19:15:09.069Z,100162.28
2023-01-13T19:17:35.979Z,100263.97
2023-01-13T19:20:04.476Z,100342.03
2023-01-13T19:22:34.470Z,100224.88
2023-01-13T19:25:02.434Z,100362.53
2023-01-13T19:27:29.717Z,100378.34
2023-01-13T19:30:01.111Z,100307.66
2023-01-13T19:32:31.137Z,100356.19
2023-01-13T19:34:59.841Z,100330.84
2023-01-13T19:37:34.150Z,100389.84
2023-01-13T19:40:00.839Z,100223.00
2023-01-13T19:43:03.563Z,100304.38
2023-01-13T19:45:31.497Z,100301.56
2023-01-13T19:48:05.288Z,100121.97
2023-01-13T19:50:35.861Z,100233.09
2023-01-13T19:53:02.463Z,100255.63
2023-01-13T19:55:30.321Z,100204.03
2023-01-13T19:57:56.990Z,100375.78
2023-01-13T20:00:23.819Z,100350.59
2023-01-13T20:02:52.992Z,100291.97
2023-01-13T20:05:22.305Z,100383.19
2023-01-13T20:07:50.204Z,100422.75
2023-01-13T20:10:18.554Z,100425.41
2023-01-13T20:12:45.176Z,100348.06
2023-01-13T20:15:12.462Z,100389.81
2023-01-13T20:17:40.513Z,100337.13
2023-01-13T20:20:09.726Z,100441.81
2023-01-13T20:22:37.835Z,100443.66
2023-01-13T20:25:05.418Z,100440.41
2023-01-13T20:27:32.101Z,100317.50
2023-01-13T20:29:59.003Z,100445.47
2023-01-13T20:32:25.855Z,100453.97
2023-01-13T20:34:52.565Z,100370.16
2023-01-13T20:37:19.395Z,100391.16
2023-01-13T20:39:46.951Z,100383.22
2023-01-13T20:42:29.164Z,100314.63
2023-01-13T20:44:57.119Z,100474.28
2023-01-13T20:47:23.919Z,100467.34
2023-01-13T20:49:50.576Z,100457.78
2023-01-13T20:52:18.116Z,100448.13
2023-01-13T20:54:44.770Z,100470.03
2023-01-13T20:57:12.076Z,100445.19
2023-01-13T20:59:39.287Z,100485.88
2023-01-13T21:02:11.077Z,100361.34
2023-01-13T21:04:37.638Z,100481.00
2023-01-13T21:07:04.241Z,100454.81
2023-01-13T21:09:30.897Z,100378.25
2023-01-13T21:12:16.674Z,100361.03
2023-01-13T21:15:01.533Z,100415.88
2023-01-13T21:17:46.861Z,100448.56
2023-01-13T21:20:15.028Z,100493.78
2023-01-13T21:22:47.494Z,100480.09
2023-01-13T21:25:15.238Z,100434.63
2023-01-13T21:27:44.013Z,100516.78
2023-01-13T21:30:15.286Z,100449.44
2023-01-13T21:32:47.296Z,100512.53
2023-01-13T21:35:14.729Z,100514.31
2023-01-13T21:37:43.315Z,100531.78
2023-01-13T21:40:12.928Z,100516.47
2023-01-13T21:42:58.870Z,100512.06
2023-01-13T21:45:44.026Z,100517.38
2023-01-13T21:48:10.807Z,100520.94
2023-01-13T21:50:38.329Z,100399.47
2023-01-13T21:53:05.712Z,100374.63
2023-01-13T21:55:32.930Z,100521.13
2023-01-13T21:58:11.742Z,100550.56
2023-01-13T22:00:40.100Z,100548.06
2023-01-13T22:03:08.670Z,100432.00
2023-01-13T22:05:36.270Z,100413.03
2023-01-13T22:08:03.193Z,100466.56
2023-01-13T22:10:30.722Z,100462.28
2023-01-13T22:13:22.012Z,100288.25
2023-01-13T22:15:48.757Z,100467.22
2023-01-13T22:18:15.447Z,100410.22
2023-01-13T22:20:42.136Z,100509.03
2023-01-13T22:23:08.818Z,100465.00
2023-01-13T22:25:35.583Z,100525.63
2023-01-13T22:28:06.042Z,100493.88
2023-01-13T22:30:33.397Z,100409.59
2023-01-13T22:33:00.551Z,100433.16
2023-01-13T22:35:27.264Z,100383.94
2023-01-13T22:37:53.904Z,100495.63
2023-01-13T22:40:20.546Z,100597.75
2023-01-13T22:42:49.974Z,100608.66
2023-01-13T22:45:16.813Z,100484.66
2023-01-13T22:47:52.405Z,100414.91
2023-01-13T22:50:20.956Z,100588.06
2023-01-13T22:52:50.275Z,100413.22
2023-01-13T22:55:21.852Z,100434.63
2023-01-13T22:57:55.062Z,100485.13
2023-01-13T23:00:22.177Z,100454.81
2023-01-13T23:02:52.445Z,100639.13
2023-01-13T23:05:19.323Z,100445.09
2023-01-13T23:07:46.130Z,100458.16
2023-01-13T23:10:15.933Z,100621.19
2023-01-13T23:12:42.605Z,100615.25
2023-01-13T23:15:14.220Z,100599.28
2023-01-13T23:17:40.930Z,100386.47
2023-01-13T23:20:08.199Z,100511.28
2023-01-13T23:22:38.597Z,100604.97
2023-01-13T23:25:05.524Z,100302.78
2023-01-13T23:27:32.068Z,100528.06
2023-01-13T23:29:58.640Z,100576.38
2023-01-13T23:32:25.158Z,100498.66
2023-01-13T23:34:51.673Z,100525.63
2023-01-13T23:37:18.196Z,100545.44
2023-01-13T23:39:44.693Z,100461.50
2023-01-13T23:42:11.176Z,100629.19
2023-01-13T23:44:37.666Z,100558.38
2023-01-13T23:47:04.299Z,100510.75
2023-01-13T23:49:31.415Z,100632.78
2023-01-13T23:51:58.359Z,100506.66
2023-01-13T23:54:24.922Z,100490.22
2023-01-13T23:56:52.596Z,100492.06
2023-01-13T23:59:19.979Z,100466.94
